createdAt,value
2023-01-29T00:00:54.807Z,154.42
2023-01-29T00:01:54.900Z,155.02
2023-01-29T00:02:54.887Z,155.48
2023-01-29T00:03:54.919Z,154.76
2023-01-29T00:04:58.910Z,150.38
2023-01-29T00:05:54.865Z,150.55
2023-01-29T00:06:54.836Z,151.23
2023-01-29T00:07:54.808Z,151.22
2023-01-29T00:08:54.813Z,151.92
2023-01-29T00:09:54.760Z,155.40
2023-01-29T00:10:54.720Z,153.05
2023-01-29T00:11:54.667Z,155.09
2023-01-29T00:12:54.652Z,152.62
2023-01-29T00:13:54.611Z,155.87
2023-01-29T00:14:54.577Z,154.25
2023-01-29T00:15:54.545Z,158.30
2023-01-29T00:16:54.582Z,157.01
2023-01-29T00:17:54.501Z,153.83
2023-01-29T00:18:54.452Z,152.25
2023-01-29T00:19:54.406Z,152.26
2023-01-29T00:20:54.424Z,151.78
2023-01-29T00:21:54.350Z,151.63
2023-01-29T00:22:54.322Z,154.43
2023-01-29T00:23:54.290Z,154.28
2023-01-29T00:24:54.237Z,153.66
2023-01-29T00:25:54.238Z,151.99
2023-01-29T00:26:54.190Z,152.14
2023-01-29T00:27:54.138Z,150.91
2023-01-29T00:28:54.121Z,155.50
2023-01-29T00:29:54.071Z,153.54
2023-01-29T00:30:54.125Z,157.04
2023-01-29T00:31:54.075Z,154.23
2023-01-29T00:32:53.940Z,154.12
2023-01-29T00:33:53.911Z,153.51
2023-01-29T00:34:53.876Z,155.07
2023-01-29T00:35:53.815Z,155.53
2023-01-29T00:36:53.786Z,156.73
2023-01-29T00:37:53.741Z,153.75
2023-01-29T00:38:53.696Z,153.13
2023-01-29T00:39:53.680Z,152.84
2023-01-29T00:40:53.621Z,152.45
2023-01-29T00:41:53.598Z,153.39
2023-01-29T00:42:53.550Z,152.15
2023-01-29T00:43:53.502Z,151.39
2023-01-29T00:44:53.483Z,149.14
2023-01-29T00:45:53.415Z,151.90
2023-01-29T00:46:53.531Z,151.29
2023-01-29T00:47:53.348Z,151.82
2023-01-29T00:48:53.290Z,151.48
2023-01-29T00:49:53.249Z,152.41
2023-01-29T00:50:53.216Z,150.81
2023-01-29T00:51:53.161Z,153.19
2023-01-29T00:52:53.126Z,154.20
2023-01-29T00:53:53.091Z,154.93
2023-01-29T00:54:53.077Z,153.67
2023-01-29T00:55:53.006Z,153.14
2023-01-29T00:56:52.980Z,155.03
2023-01-29T00:57:52.935Z,153.98
2023-01-29T00:58:52.882Z,153.63
2023-01-29T00:59:52.824Z,157.98
2023-01-29T01:00:52.794Z,154.98
2023-01-29T01:01:52.796Z,156.91
2023-01-29T01:02:52.719Z,152.48
2023-01-29T01:03:52.658Z,154.71
2023-01-29T01:04:52.633Z,155.45
2023-01-29T01:05:52.600Z,151.97
2023-01-29T01:06:52.557Z,154.64
2023-01-29T01:07:52.532Z,156.05
2023-01-29T01:08:52.557Z,156.42
2023-01-29T01:09:52.447Z,154.58
2023-01-29T01:10:52.424Z,152.45
2023-01-29T01:11:52.387Z,154.81
2023-01-29T01:12:52.337Z,155.85
2023-01-29T01:13:52.297Z,155.45
2023-01-29T01:14:52.268Z,153.07
2023-01-29T01:15:52.229Z,155.20
2023-01-29T01:16:52.224Z,153.24
2023-01-29T01:17:52.196Z,152.05
2023-01-29T01:18:52.156Z,151.21
2023-01-29T01:19:52.147Z,151.36
2023-01-29T01:20:52.099Z,151.02
2023-01-29T01:21:52.018Z,150.47
2023-01-29T01:22:52.015Z,153.01
2023-01-29T01:23:51.933Z,150.42
2023-01-29T01:24:51.900Z,151.10
2023-01-29T01:25:51.863Z,147.42
2023-01-29T01:26:51.855Z,151.61
2023-01-29T01:27:51.807Z,152.25
2023-01-29T01:28:51.758Z,152.58
2023-01-29T01:29:51.729Z,150.43
2023-01-29T01:30:51.699Z,151.63
2023-01-29T01:31:51.736Z,151.79
2023-01-29T01:32:51.605Z,151.87
2023-01-29T01:33:51.566Z,152.29
2023-01-29T01:34:51.536Z,151.98
2023-01-29T01:35:51.506Z,155.42
2023-01-29T01:36:51.438Z,153.39
2023-01-29T01:37:51.424Z,155.42
2023-01-29T01:38:51.377Z,154.49
2023-01-29T01:39:51.337Z,154.04
2023-01-29T01:40:51.306Z,150.70
2023-01-29T01:41:51.306Z,152.55
2023-01-29T01:42:51.236Z,150.20
2023-01-29T01:43:51.195Z,152.29
2023-01-29T01:44:51.157Z,153.18
2023-01-29T01:45:51.136Z,151.12
2023-01-29T01:46:51.091Z,152.16
2023-01-29T01:47:51.056Z,147.95
2023-01-29T01:48:51.023Z,151.88
2023-01-29T01:49:50.944Z,152.09
2023-01-29T01:50:50.928Z,146.52
2023-01-29T01:51:50.907Z,150.12
2023-01-29T01:52:50.829Z,152.77
2023-01-29T01:53:50.797Z,147.32
2023-01-29T01:54:50.735Z,148.35
2023-01-29T01:55:50.701Z,150.87
2023-01-29T01:56:50.666Z,154.75
2023-01-29T01:57:52.215Z,152.11
2023-01-29T01:58:50.662Z,150.47
2023-01-29T01:59:50.559Z,152.37
2023-01-29T02:00:50.526Z,152.29
2023-01-29T02:01:50.518Z,152.41
2023-01-29T02:02:50.443Z,151.85
2023-01-29T02:03:50.384Z,152.37
2023-01-29T02:04:50.352Z,153.72
2023-01-29T02:05:50.323Z,152.58
2023-01-29T02:06:50.262Z,151.70
2023-01-29T02:07:50.762Z,151.80
2023-01-29T02:08:50.213Z,150.36
2023-01-29T02:09:50.145Z,152.67
2023-01-29T02:10:50.121Z,149.88
2023-01-29T02:11:50.071Z,150.33
2023-01-29T02:12:50.025Z,151.99
2023-01-29T02:13:49.997Z,153.43
2023-01-29T02:14:49.960Z,151.88
2023-01-29T02:15:49.940Z,151.64
2023-01-29T02:16:49.907Z,150.03
2023-01-29T02:17:49.900Z,151.04
2023-01-29T02:18:49.830Z,151.71
2023-01-29T02:19:49.763Z,148.21
2023-01-29T02:20:49.734Z,150.85
2023-01-29T02:21:49.702Z,150.24
2023-01-29T02:22:49.665Z,150.71
2023-01-29T02:23:49.674Z,148.87
2023-01-29T02:24:49.596Z,150.24
2023-01-29T02:25:49.585Z,148.52
2023-01-29T02:26:49.536Z,152.17
2023-01-29T02:27:49.485Z,149.91
2023-01-29T02:28:49.471Z,150.79
2023-01-29T02:29:49.478Z,149.70
2023-01-29T02:30:49.421Z,148.68
2023-01-29T02:31:49.386Z,149.19
2023-01-29T02:32:49.303Z,148.32
2023-01-29T02:33:49.274Z,149.07
2023-01-29T02:34:49.277Z,148.22
2023-01-29T02:35:49.217Z,150.21
2023-01-29T02:36:49.180Z,149.07
2023-01-29T02:37:49.129Z,149.95
2023-01-29T02:38:49.144Z,149.15
2023-01-29T02:39:49.075Z,146.77
2023-01-29T02:40:49.027Z,148.34
2023-01-29T02:41:48.986Z,146.49
2023-01-29T02:42:48.957Z,149.17
2023-01-29T02:43:48.918Z,147.12
2023-01-29T02:44:48.907Z,143.41
2023-01-29T02:45:48.909Z,147.87
2023-01-29T02:46:48.825Z,148.23
2023-01-29T02:47:48.796Z,150.76
2023-01-29T02:48:48.725Z,147.92
2023-01-29T02:49:48.693Z,148.65
2023-01-29T02:50:48.699Z,146.32
2023-01-29T02:51:48.640Z,147.53
2023-01-29T02:52:48.615Z,143.06
2023-01-29T02:53:48.576Z,129.65
2023-01-29T02:54:48.577Z,129.86
2023-01-29T02:55:48.489Z,134.44
2023-01-29T02:56:48.463Z,130.46
2023-01-29T02:57:48.428Z,123.75
2023-01-29T02:58:48.392Z,125.43
2023-01-29T02:59:48.354Z,120.12
2023-01-29T03:00:48.339Z,110.85
2023-01-29T03:01:48.295Z,116.41
2023-01-29T03:02:48.258Z,115.97
2023-01-29T03:03:48.199Z,116.90
2023-01-29T03:04:48.177Z,112.16
2023-01-29T03:05:48.168Z,101.23
2023-01-29T03:06:48.122Z,84.21
2023-01-29T03:07:48.094Z,99.57
2023-01-29T03:08:48.031Z,101.45
2023-01-29T03:09:48.017Z,105.73
2023-01-29T03:10:47.970Z,93.95
2023-01-29T03:11:47.924Z,90.69
2023-01-29T03:12:47.887Z,84.12
2023-01-29T03:13:47.868Z,83.34
2023-01-29T03:14:47.818Z,78.56
2023-01-29T03:15:47.798Z,77.62
2023-01-29T03:16:47.842Z,87.17
2023-01-29T03:17:47.715Z,78.04
2023-01-29T03:18:47.679Z,76.52
2023-01-29T03:19:47.651Z,58.44
2023-01-29T03:20:47.613Z,70.06
2023-01-29T03:21:47.612Z,61.43
2023-01-29T03:22:47.521Z,70.31
2023-01-29T03:23:47.516Z,66.79
2023-01-29T03:24:47.481Z,61.59
2023-01-29T03:25:47.448Z,48.09
2023-01-29T03:26:47.393Z,45.74
2023-01-29T03:27:47.392Z,50.23
2023-01-29T03:28:47.364Z,47.93
2023-01-29T03:29:47.327Z,41.58
2023-01-29T03:30:47.310Z,55.12
2023-01-29T03:31:47.300Z,49.83
2023-01-29T03:32:47.219Z,40.51
2023-01-29T03:34:47.173Z,37.15
2023-01-29T03:35:47.136Z,27.64
2023-01-29T03:36:47.112Z,33.15
2023-01-29T03:37:47.081Z,41.25
2023-01-29T03:38:47.059Z,30.94
2023-01-29T03:39:47.040Z,37.30
2023-01-29T03:40:47.012Z,28.28
2023-01-29T03:41:46.970Z,25.00
2023-01-29T03:42:46.934Z,34.25
2023-01-29T03:43:46.926Z,29.00
2023-01-29T03:44:48.918Z,35.90
2023-01-29T03:45:46.885Z,32.70
2023-01-29T03:46:46.807Z,28.57
2023-01-29T03:47:46.757Z,32.11
2023-01-29T03:48:46.710Z,25.00
2023-01-29T04:15:46.883Z,46.33
2023-01-29T04:16:46.921Z,42.20
2023-01-29T04:17:46.927Z,40.18
2023-01-29T04:18:46.966Z,41.22
2023-01-29T04:19:47.006Z,32.12
2023-01-29T04:20:47.045Z,30.94
2023-01-29T04:21:47.072Z,28.57
2023-01-29T04:22:47.101Z,27.47
2023-01-29T04:23:47.135Z,36.89
2023-01-29T04:24:47.174Z,32.02
2023-01-29T04:25:47.246Z,39.51
2023-01-29T04:26:47.257Z,41.45
2023-01-29T04:27:47.319Z,40.43
2023-01-29T04:28:47.334Z,39.26
2023-01-29T04:29:47.413Z,26.60
2023-01-29T04:30:47.478Z,36.30
2023-01-29T04:31:47.419Z,43.74
2023-01-29T04:32:47.461Z,43.42
2023-01-29T04:33:47.480Z,43.37
2023-01-29T04:34:47.486Z,43.75
2023-01-29T04:35:47.520Z,38.03
2023-01-29T04:36:47.574Z,36.33
2023-01-29T04:37:47.569Z,38.87
2023-01-29T04:38:47.609Z,39.10
2023-01-29T04:39:47.609Z,40.71
2023-01-29T04:40:47.647Z,43.57
2023-01-29T04:41:47.703Z,40.18
2023-01-29T04:42:47.712Z,43.55
2023-01-29T04:43:47.729Z,36.53
2023-01-29T04:44:47.751Z,39.02
2023-01-29T04:45:47.795Z,38.97
2023-01-29T04:46:47.852Z,38.18
2023-01-29T04:47:47.880Z,46.19
2023-01-29T04:48:47.889Z,41.14
2023-01-29T04:49:47.926Z,40.51
2023-01-29T04:50:47.968Z,42.98
2023-01-29T04:51:47.983Z,39.01
2023-01-29T04:52:48.790Z,40.50
2023-01-29T04:53:47.975Z,36.52
2023-01-29T04:54:47.914Z,35.11
2023-01-29T04:55:47.885Z,37.46
2023-01-29T04:56:47.906Z,43.29
2023-01-29T04:57:47.863Z,42.91
2023-01-29T04:58:47.814Z,44.22
2023-01-29T04:59:47.776Z,42.26
2023-01-29T05:00:47.827Z,44.92
2023-01-29T05:01:47.901Z,40.72
2023-01-29T05:02:47.935Z,39.41
2023-01-29T05:03:47.913Z,41.09
2023-01-29T05:04:47.921Z,46.91
2023-01-29T05:05:47.984Z,51.49
2023-01-29T05:06:48.030Z,47.99
2023-01-29T05:07:48.055Z,51.02
2023-01-29T05:08:48.063Z,40.53
2023-01-29T05:09:48.145Z,42.58
2023-01-29T05:10:48.161Z,42.14
2023-01-29T05:11:48.169Z,44.78
2023-01-29T05:12:48.216Z,50.98
2023-01-29T05:13:48.273Z,48.82
2023-01-29T05:14:48.295Z,47.93
2023-01-29T05:15:48.357Z,50.32
2023-01-29T05:16:48.353Z,45.72
2023-01-29T05:17:48.370Z,42.27
2023-01-29T05:18:48.407Z,43.67
2023-01-29T05:19:48.470Z,43.74
2023-01-29T05:20:48.471Z,46.51
2023-01-29T05:21:48.528Z,45.38
2023-01-29T05:22:48.556Z,42.63
2023-01-29T05:23:48.602Z,44.32
2023-01-29T05:24:48.584Z,45.16
2023-01-29T05:25:48.601Z,45.29
2023-01-29T05:26:48.656Z,45.21
2023-01-29T05:27:48.591Z,45.35
2023-01-29T05:28:48.548Z,46.45
2023-01-29T05:29:48.533Z,47.80
2023-01-29T05:30:48.471Z,42.56
2023-01-29T05:31:48.869Z,45.57
2023-01-29T05:32:48.408Z,49.55
2023-01-29T05:33:48.350Z,44.07
2023-01-29T05:34:48.312Z,46.39
2023-01-29T05:35:48.327Z,43.95
2023-01-29T05:36:48.275Z,43.07
2023-01-29T05:37:48.228Z,47.66
2023-01-29T05:38:48.200Z,51.79
2023-01-29T05:39:48.181Z,47.99
2023-01-29T05:40:48.157Z,50.62
2023-01-29T05:41:48.134Z,51.30
2023-01-29T05:42:48.131Z,47.88
2023-01-29T05:43:48.073Z,47.49
2023-01-29T05:44:48.037Z,49.19
2023-01-29T05:45:47.999Z,48.56
2023-01-29T05:46:48.008Z,53.01
2023-01-29T05:47:47.925Z,56.05
2023-01-29T05:48:47.895Z,53.73
2023-01-29T05:49:47.869Z,53.58
2023-01-29T05:50:47.838Z,54.84
2023-01-29T05:51:47.804Z,51.93
2023-01-29T05:52:47.803Z,52.64
2023-01-29T05:53:47.757Z,56.66
2023-01-29T05:54:47.716Z,56.12
2023-01-29T05:55:47.721Z,60.61
2023-01-29T05:56:47.696Z,61.37
2023-01-29T05:57:47.652Z,58.33
2023-01-29T05:58:47.657Z,58.18
2023-01-29T05:59:47.596Z,59.44
2023-01-29T06:00:47.589Z,60.64
2023-01-29T06:01:47.547Z,58.04
2023-01-29T06:02:47.549Z,59.75
2023-01-29T06:03:47.516Z,65.72
2023-01-29T06:04:47.456Z,65.33
2023-01-29T06:05:47.422Z,64.49
2023-01-29T06:06:47.380Z,58.84
2023-01-29T06:07:47.386Z,65.35
2023-01-29T06:08:47.813Z,60.36
2023-01-29T06:09:47.302Z,58.95
2023-01-29T06:10:47.265Z,60.53
2023-01-29T06:11:47.227Z,59.13
2023-01-29T06:12:47.223Z,61.11
2023-01-29T06:13:47.201Z,65.91
2023-01-29T06:14:47.142Z,61.15
2023-01-29T06:15:47.210Z,61.19
2023-01-29T06:16:47.095Z,62.77
2023-01-29T06:17:47.056Z,58.14
2023-01-29T06:18:47.028Z,60.63
2023-01-29T06:19:47.002Z,56.84
2023-01-29T06:20:46.967Z,57.71
2023-01-29T06:21:46.961Z,60.83
2023-01-29T06:22:46.919Z,62.17
2023-01-29T06:23:46.924Z,65.04
2023-01-29T06:24:46.882Z,57.90
2023-01-29T06:25:46.865Z,61.21
2023-01-29T06:26:46.843Z,65.02
2023-01-29T06:27:46.799Z,59.92
2023-01-29T06:28:46.807Z,59.71
2023-01-29T06:29:46.756Z,59.49
2023-01-29T06:30:46.761Z,63.37
2023-01-29T06:31:46.878Z,66.57
2023-01-29T06:32:46.674Z,65.29
2023-01-29T06:33:46.644Z,65.38
2023-01-29T06:34:49.587Z,65.65
2023-01-29T06:35:46.590Z,67.04
2023-01-29T06:36:46.547Z,64.69
2023-01-29T06:37:46.558Z,68.07
2023-01-29T06:38:46.535Z,70.98
2023-01-29T06:39:46.474Z,70.70
2023-01-29T06:40:46.456Z,71.86
2023-01-29T06:41:46.447Z,70.31
2023-01-29T06:42:46.391Z,69.07
2023-01-29T06:44:46.332Z,75.14
2023-01-29T06:45:46.314Z,71.20
2023-01-29T06:46:46.469Z,76.37
2023-01-29T06:47:46.225Z,74.14
2023-01-29T06:48:46.222Z,75.71
2023-01-29T06:49:46.172Z,81.71
2023-01-29T06:50:46.129Z,82.50
2023-01-29T06:51:46.131Z,78.26
2023-01-29T06:52:46.093Z,76.55
2023-01-29T06:53:46.829Z,74.70
2023-01-29T06:54:46.022Z,78.34
2023-01-29T06:55:45.997Z,72.49
2023-01-29T06:56:46.001Z,73.60
2023-01-29T06:57:45.967Z,76.36
2023-01-29T07:05:45.711Z,78.04
2023-01-29T07:06:45.679Z,79.79
2023-01-29T07:07:45.671Z,81.26
2023-01-29T07:08:45.629Z,81.95
2023-01-29T07:09:45.585Z,82.52
2023-01-29T07:10:45.549Z,78.57
2023-01-29T07:11:45.509Z,77.72
2023-01-29T07:12:45.500Z,77.89
2023-01-29T07:13:45.504Z,78.07
2023-01-29T07:14:45.464Z,78.94
2023-01-29T07:15:45.409Z,75.40
2023-01-29T09:17:41.897Z,113.97
2023-01-29T09:18:41.904Z,115.47
2023-01-29T09:19:41.838Z,114.36
2023-01-29T09:21:41.798Z,118.99
2023-01-29T09:22:41.739Z,115.23
2023-01-29T09:23:41.718Z,119.32
2023-01-29T09:24:41.669Z,121.23
2023-01-29T09:25:41.659Z,122.86
2023-01-29T09:26:41.674Z,121.71
2023-01-29T09:27:41.628Z,121.82
2023-01-29T09:28:41.575Z,122.57
2023-01-29T09:29:41.513Z,122.23
2023-01-29T09:30:41.571Z,125.70
2023-01-29T09:31:41.585Z,121.13
2023-01-29T09:32:53.335Z,125.69
2023-01-29T09:33:42.390Z,125.95
2023-01-29T09:34:41.374Z,126.41
2023-01-29T09:35:41.362Z,126.43
2023-01-29T09:36:41.298Z,127.37
2023-01-29T09:37:41.263Z,128.37
2023-01-29T09:38:41.225Z,134.16
2023-01-29T09:39:41.196Z,131.20
2023-01-29T09:40:41.159Z,130.70
2023-01-29T09:41:41.111Z,131.21
2023-01-29T09:42:41.084Z,131.34
2023-01-29T09:44:41.017Z,133.70
2023-01-29T09:45:41.073Z,136.40
2023-01-29T09:46:40.949Z,135.91
2023-01-29T09:47:40.911Z,134.78
2023-01-29T09:48:40.884Z,134.81
2023-01-29T09:49:40.849Z,137.08
2023-01-29T09:50:40.815Z,134.19
2023-01-29T09:51:40.781Z,138.04
2023-01-29T09:52:40.741Z,139.71
2023-01-29T09:53:40.685Z,139.44
2023-01-29T09:54:40.708Z,143.47
2023-01-29T09:55:40.619Z,141.94
2023-01-29T09:56:40.595Z,138.13
2023-01-29T09:57:40.549Z,138.92
2023-01-29T09:58:40.554Z,141.07
2023-01-29T09:59:40.490Z,139.62
2023-01-29T10:00:40.468Z,144.91
2023-01-29T10:01:40.499Z,141.85
2023-01-29T10:02:40.393Z,143.15
2023-01-29T10:03:40.376Z,146.77
2023-01-29T10:04:40.375Z,143.96
2023-01-29T10:05:40.289Z,143.26
2023-01-29T10:06:40.243Z,145.42
2023-01-29T10:07:40.198Z,146.02
2023-01-29T10:08:40.203Z,146.22
2023-01-29T10:09:40.139Z,146.34
2023-01-29T10:10:40.106Z,147.94
2023-01-29T10:11:40.100Z,150.33
2023-01-29T10:12:40.029Z,152.23
2023-01-29T10:13:39.994Z,151.53
2023-01-29T10:14:39.987Z,150.70
2023-01-29T10:15:39.950Z,151.92
2023-01-29T10:16:39.984Z,149.65
2023-01-29T10:17:39.879Z,153.82
2023-01-29T10:18:39.823Z,153.29
2023-01-29T10:19:39.794Z,151.30
2023-01-29T10:20:39.770Z,150.95
2023-01-29T10:21:39.729Z,151.04
2023-01-29T10:22:39.736Z,151.38
2023-01-29T10:23:39.666Z,148.70
2023-01-29T10:24:40.406Z,151.25
2023-01-29T10:25:39.557Z,155.47
2023-01-29T10:26:39.590Z,152.12
2023-01-29T10:27:39.490Z,151.64
2023-01-29T10:28:39.460Z,152.08
2023-01-29T10:29:39.415Z,152.09
2023-01-29T10:30:39.395Z,152.42
2023-01-29T10:31:39.453Z,153.35
2023-01-29T10:32:39.305Z,154.77
2023-01-29T10:33:49.172Z,153.07
2023-01-29T10:34:40.207Z,153.40
2023-01-29T10:35:39.181Z,153.76
2023-01-29T10:36:39.156Z,153.89
2023-01-29T10:37:39.079Z,154.55
2023-01-29T10:38:39.086Z,155.52
2023-01-29T10:39:38.995Z,155.41
2023-01-29T10:40:38.956Z,157.03
2023-01-29T10:41:38.928Z,157.02
2023-01-29T10:42:38.890Z,157.86
2023-01-29T10:43:38.853Z,155.70
2023-01-29T10:44:38.820Z,156.19
2023-01-29T10:45:38.825Z,158.41
2023-01-29T10:46:38.748Z,160.37
2023-01-29T10:47:38.732Z,156.97
2023-01-29T10:48:38.663Z,157.50
2023-01-29T10:49:38.606Z,157.51
2023-01-29T10:50:38.575Z,157.67
2023-01-29T10:51:38.531Z,158.92
2023-01-29T10:52:38.520Z,157.06
2023-01-29T10:53:38.444Z,157.97
2023-01-29T10:54:38.395Z,157.88
2023-01-29T10:55:38.361Z,158.17
2023-01-29T10:56:38.328Z,159.22
2023-01-29T10:57:38.277Z,160.99
2023-01-29T10:58:38.940Z,158.07
2023-01-29T10:59:38.197Z,159.25
2023-01-29T11:00:38.145Z,161.72
2023-01-29T11:01:38.145Z,161.99
2023-01-29T11:02:38.112Z,160.09
2023-01-29T11:03:38.060Z,161.53
2023-01-29T11:04:37.982Z,163.66
2023-01-29T11:05:37.946Z,163.34
2023-01-29T11:06:37.915Z,160.42
2023-01-29T11:07:37.866Z,164.54
2023-01-29T11:08:37.820Z,160.84
2023-01-29T11:09:37.792Z,164.61
2023-01-29T11:10:37.717Z,161.71
2023-01-29T11:11:37.700Z,162.92
2023-01-29T11:12:37.656Z,164.72
2023-01-29T11:13:37.583Z,162.05
2023-01-29T11:14:37.539Z,165.05
2023-01-29T11:15:37.509Z,162.60
2023-01-29T11:16:37.513Z,165.18
2023-01-29T11:17:37.423Z,167.42
2023-01-29T11:18:37.353Z,168.62
2023-01-29T11:19:37.326Z,162.82
2023-01-29T11:20:37.262Z,164.36
2023-01-29T11:21:37.235Z,165.03
2023-01-29T11:22:37.193Z,164.68
2023-01-29T11:23:37.158Z,163.33
2023-01-29T11:24:37.090Z,170.62
2023-01-29T11:25:37.058Z,168.05
2023-01-29T11:26:37.082Z,166.83
2023-01-29T11:27:36.964Z,162.34
2023-01-29T11:28:36.926Z,167.21
2023-01-29T11:29:36.870Z,169.41
2023-01-29T11:30:36.834Z,166.24
2023-01-29T11:31:36.891Z,166.05
2023-01-29T11:32:36.725Z,164.56
2023-01-29T11:33:36.658Z,168.38
2023-01-29T11:34:36.628Z,161.24
2023-01-29T11:35:36.615Z,170.14
2023-01-29T11:36:36.539Z,165.43
2023-01-29T11:37:36.505Z,165.75
2023-01-29T11:38:36.460Z,166.20
2023-01-29T11:39:36.394Z,167.06
2023-01-29T11:40:36.374Z,167.70
2023-01-29T11:41:36.321Z,169.64
2023-01-29T11:42:36.289Z,166.05
2023-01-29T11:43:36.246Z,167.81
2023-01-29T11:44:36.192Z,168.33
2023-01-29T11:45:36.178Z,167.23
2023-01-29T11:46:36.117Z,169.61
2023-01-29T11:47:36.295Z,169.45
2023-01-29T11:48:36.030Z,169.54
2023-01-29T11:49:36.020Z,164.99
2023-01-29T11:50:35.979Z,170.61
2023-01-29T11:51:35.906Z,169.24
2023-01-29T11:52:35.864Z,167.90
2023-01-29T11:53:35.837Z,165.17
2023-01-29T11:54:35.772Z,171.04
2023-01-29T11:55:49.751Z,167.12
2023-01-29T11:56:36.697Z,167.41
2023-01-29T11:57:35.647Z,167.65
2023-01-29T11:58:35.633Z,168.35
2023-01-29T11:59:35.566Z,172.06
2023-01-29T12:00:35.536Z,169.49
2023-01-29T12:01:35.489Z,170.22
2023-01-29T12:02:35.456Z,173.42
2023-01-29T12:03:35.420Z,168.51
2023-01-29T12:04:35.350Z,170.28
2023-01-29T12:05:35.333Z,167.02
2023-01-29T12:06:35.259Z,170.07
2023-01-29T12:07:35.208Z,177.78
2023-01-29T12:08:35.186Z,172.20
2023-01-29T12:09:35.114Z,175.71
2023-01-29T12:10:35.081Z,174.08
2023-01-29T12:11:35.044Z,175.48
2023-01-29T12:12:35.018Z,174.79
2023-01-29T12:13:34.965Z,176.51
2023-01-29T12:14:34.908Z,176.16
2023-01-29T12:15:34.864Z,177.82
2023-01-29T12:16:34.866Z,177.09
2023-01-29T12:17:34.788Z,177.94
2023-01-29T12:18:34.727Z,177.67
2023-01-29T12:19:34.746Z,175.02
2023-01-29T12:20:34.664Z,177.31
2023-01-29T12:21:34.617Z,178.67
2023-01-29T12:22:34.547Z,173.08
2023-01-29T12:23:34.516Z,177.27
2023-01-29T12:24:34.469Z,179.31
2023-01-29T12:25:34.424Z,176.68
2023-01-29T12:26:34.399Z,179.35
2023-01-29T12:27:34.313Z,177.69
2023-01-29T12:28:34.293Z,177.47
2023-01-29T12:29:34.222Z,177.46
2023-01-29T12:30:34.206Z,176.93
2023-01-29T12:31:34.208Z,178.16
2023-01-29T12:32:34.115Z,177.69
2023-01-29T12:33:34.475Z,182.36
2023-01-29T12:34:34.050Z,177.52
2023-01-29T12:35:33.974Z,175.85
2023-01-29T12:36:34.471Z,178.78
2023-01-29T12:37:34.446Z,179.45
2023-01-29T12:38:33.938Z,179.01
2023-01-29T12:39:34.002Z,177.22
2023-01-29T12:40:33.744Z,177.92
2023-01-29T12:41:33.681Z,178.14
2023-01-29T12:42:33.637Z,180.15
2023-01-29T12:43:33.565Z,179.06
2023-01-29T12:44:34.458Z,178.36
2023-01-29T12:45:33.465Z,180.12
2023-01-29T12:46:33.465Z,182.14
2023-01-29T12:47:33.381Z,181.13
2023-01-29T12:48:33.392Z,181.63
2023-01-29T12:49:33.294Z,181.72
2023-01-29T12:50:33.256Z,181.62
2023-01-29T12:51:33.195Z,179.82
2023-01-29T12:52:33.136Z,180.90
2023-01-29T12:53:33.113Z,177.15
2023-01-29T12:54:33.068Z,183.42
2023-01-29T12:55:33.017Z,179.10
2023-01-29T12:56:32.964Z,178.53
2023-01-29T12:57:32.902Z,179.79
2023-01-29T12:58:32.876Z,182.66
2023-01-29T12:59:32.815Z,182.97
2023-01-29T13:00:32.788Z,183.47
2023-01-29T13:01:32.725Z,179.92
2023-01-29T13:02:32.660Z,176.54
2023-01-29T13:03:32.681Z,184.78
2023-01-29T13:04:32.576Z,184.75
2023-01-29T13:05:32.518Z,183.61
2023-01-29T13:06:32.484Z,180.64
2023-01-29T13:07:32.580Z,183.32
2023-01-29T13:08:32.398Z,185.89
2023-01-29T13:09:32.499Z,183.54
2023-01-29T13:10:32.300Z,181.03
2023-01-29T13:11:32.248Z,181.35
2023-01-29T13:12:32.209Z,182.10
2023-01-29T13:13:32.167Z,182.77
2023-01-29T13:14:32.126Z,183.86
2023-01-29T13:15:32.081Z,185.81
2023-01-29T13:16:32.081Z,182.61
2023-01-29T13:17:31.946Z,184.49
2023-01-29T13:18:31.892Z,184.69
2023-01-29T13:19:31.856Z,182.22
2023-01-29T13:20:31.824Z,183.35
2023-01-29T13:21:31.758Z,186.42
2023-01-29T13:22:31.712Z,184.20
2023-01-29T13:23:31.668Z,185.52
2023-01-29T13:24:31.602Z,183.29
2023-01-29T13:25:31.540Z,184.78
2023-01-29T13:26:31.533Z,183.65
2023-01-29T13:27:32.015Z,184.19
2023-01-29T13:28:31.403Z,183.98
2023-01-29T13:29:31.495Z,183.70
2023-01-29T13:30:31.336Z,183.84
2023-01-29T13:31:31.285Z,185.44
2023-01-29T13:32:31.269Z,186.80
2023-01-29T13:33:31.151Z,182.89
2023-01-29T13:34:31.119Z,184.83
2023-01-29T13:35:31.079Z,183.92
2023-01-29T13:36:31.004Z,184.19
2023-01-29T13:37:30.943Z,182.10
2023-01-29T13:38:30.897Z,184.82
2023-01-29T13:39:30.849Z,184.99
2023-01-29T13:40:30.779Z,186.26
2023-01-29T13:41:30.730Z,185.53
2023-01-29T13:42:30.665Z,183.70
2023-01-29T13:43:30.636Z,185.19
2023-01-29T13:44:30.593Z,187.04
2023-01-29T13:45:30.530Z,184.40
2023-01-29T13:46:30.479Z,185.90
2023-01-29T13:47:30.444Z,190.69
2023-01-29T13:48:30.394Z,188.25
2023-01-29T13:49:30.379Z,185.52
2023-01-29T13:50:30.298Z,185.12
2023-01-29T13:51:30.260Z,189.93
2023-01-29T13:52:30.216Z,182.62
2023-01-29T13:53:30.153Z,186.70
2023-01-29T13:54:30.118Z,185.52
2023-01-29T13:55:30.088Z,188.28
2023-01-29T13:56:30.048Z,188.11
2023-01-29T13:57:29.970Z,185.59
2023-01-29T13:58:29.904Z,189.91
2023-01-29T13:59:29.876Z,188.61
2023-01-29T14:00:29.820Z,185.58
2023-01-29T14:01:29.862Z,187.68
2023-01-29T14:02:29.842Z,186.79
2023-01-29T14:03:35.900Z,190.86
2023-01-29T14:04:30.630Z,191.06
2023-01-29T14:05:29.606Z,190.92
2023-01-29T14:06:29.521Z,190.69
2023-01-29T14:07:29.487Z,191.49
2023-01-29T14:08:29.424Z,191.65
2023-01-29T14:09:29.411Z,191.02
2023-01-29T14:10:29.350Z,189.95
2023-01-29T14:11:29.314Z,191.43
2023-01-29T14:12:29.252Z,190.87
2023-01-29T14:13:29.226Z,188.91
2023-01-29T14:14:29.157Z,190.82
2023-01-29T14:15:29.120Z,191.51
2023-01-29T14:16:29.094Z,191.73
2023-01-29T14:17:29.033Z,192.42
2023-01-29T14:18:28.948Z,186.11
2023-01-29T14:19:28.897Z,188.10
2023-01-29T14:20:38.225Z,188.98
2023-01-29T14:21:29.821Z,189.22
2023-01-29T14:22:28.761Z,189.38
2023-01-29T14:23:28.712Z,189.84
2023-01-29T14:24:28.674Z,190.06
2023-01-29T14:25:28.619Z,191.43
2023-01-29T14:26:28.583Z,192.43
2023-01-29T14:27:28.524Z,194.93
2023-01-29T14:28:29.008Z,189.52
2023-01-29T14:29:34.772Z,187.45
2023-01-29T14:30:29.380Z,187.83
2023-01-29T14:31:28.405Z,187.82
2023-01-29T14:32:28.257Z,188.78
2023-01-29T14:33:28.234Z,189.78
2023-01-29T14:34:28.159Z,189.86
2023-01-29T14:35:28.137Z,189.53
2023-01-29T14:36:28.069Z,190.21
2023-01-29T14:37:27.997Z,189.19
2023-01-29T14:38:27.947Z,189.38
2023-01-29T14:39:27.920Z,186.85
2023-01-29T14:40:27.860Z,188.63
2023-01-29T14:41:27.797Z,185.23
2023-01-29T14:42:27.768Z,185.95
2023-01-29T14:43:27.702Z,186.57
2023-01-29T14:44:27.651Z,186.63
2023-01-29T14:45:27.588Z,186.67
2023-01-29T14:46:27.628Z,186.83
2023-01-29T14:47:27.501Z,187.44
2023-01-29T14:48:27.432Z,184.18
2023-01-29T14:49:27.400Z,184.52
2023-01-29T14:50:27.364Z,183.89
2023-01-29T14:51:27.294Z,185.55
2023-01-29T14:52:27.252Z,186.20
2023-01-29T14:53:27.188Z,186.44
2023-01-29T14:54:27.122Z,184.93
2023-01-29T14:55:27.083Z,185.29
2023-01-29T14:56:27.027Z,185.25
2023-01-29T14:57:26.992Z,180.85
2023-01-29T14:58:26.916Z,182.87
2023-01-29T14:59:26.886Z,183.20
2023-01-29T15:00:26.829Z,183.95
2023-01-29T15:01:26.915Z,183.60
2023-01-29T15:02:26.824Z,181.70
2023-01-29T15:03:26.707Z,180.90
2023-01-29T15:04:26.683Z,183.16
2023-01-29T15:05:26.660Z,183.26
2023-01-29T15:06:26.593Z,181.72
2023-01-29T15:07:26.559Z,182.61
2023-01-29T15:08:26.496Z,182.02
2023-01-29T15:09:35.951Z,181.58
2023-01-29T15:10:27.449Z,181.79
2023-01-29T15:11:26.364Z,182.07
2023-01-29T15:12:26.305Z,182.20
2023-01-29T15:13:26.258Z,182.14